Crackenback, Australia
Current Conditions -  °F | °C
As of 12:00 PM on Wednesday 22 Oct 2014 (Local Time) from YCOM Reporting Station
Clear Clear  
Wind Chill: 66°   Ceiling: Unl
Heat Index: 66°   Visibility: 6mi
Dew Point: 54°   Wind: 7mph
Humidity: 64%   Direction: 60°ENE
Pressure: 30.21"   Gusts: NA
Location:  36.44°S, 148.51°E
Report Text: YCOM 220100Z AUTO 06006KT 9999 // NCD 19/12 Q1023
Loading
Personal Weather Stations






























Interactive Weather Map
Tropical Storm Tracking
New forecast layout! Learn more

10-Day Weather Forecast

Advertisements
Track Severe Weather on mobile